Lottsburg, Virginia
Current Conditions -  °F | °C
As of 3:53 AM on Thursday 18 Dec 2014 (Local Time) from KNUI Reporting Station
Clear Clear  
Wind Chill: 30°   Ceiling: Unl
Heat Index: 38°   Visibility: 10mi
Dew Point: 20°   Wind: 13mph
Humidity: 48%   Direction: 300°WNW
Pressure: 30.08"   Gusts: 23mph
Location:  37.96°N, 76.52°W
Report Text: KNUI 180853Z AUTO 30011G20KT 10SM CLR 03/M07 A3008 RMK AO2 SLP185 T00331067 50005
Loading
Personal Weather Stations






























Interactive Weather Map New forecast layout! Learn more

10-Day Weather Forecast

Advertisements
Track Severe Weather on mobile